createdAt,value
2023-05-11T00:01:10.026Z,16.17
2023-05-11T00:03:37.344Z,27.25
2023-05-11T00:06:04.734Z,16.92
2023-05-11T00:08:32.073Z,18.10
2023-05-11T00:11:00.965Z,18.70
2023-05-11T00:13:28.731Z,23.92
2023-05-11T00:15:56.140Z,18.55
2023-05-11T00:18:23.507Z,22.10
2023-05-11T00:20:50.930Z,17.65
2023-05-11T00:23:18.206Z,19.75
2023-05-11T00:25:45.473Z,21.83
2023-05-11T00:28:13.568Z,21.20
2023-05-11T00:30:41.475Z,19.10
2023-05-11T00:33:08.728Z,16.70
2023-05-11T00:35:36.028Z,24.48
2023-05-11T00:38:03.482Z,20.27
2023-05-11T00:40:33.754Z,12.07
2023-05-11T00:43:01.229Z,20.00
2023-05-11T00:45:28.668Z,18.30
2023-05-11T00:47:56.038Z,21.15
2023-05-11T00:50:23.322Z,21.55
2023-05-11T00:52:51.229Z,17.02
2023-05-11T00:55:21.421Z,22.48
2023-05-11T00:57:49.044Z,19.65
2023-05-11T01:00:16.617Z,21.33
2023-05-11T01:02:45.736Z,16.65
2023-05-11T01:05:13.255Z,21.73
2023-05-11T01:07:50.270Z,16.45
2023-05-11T01:10:36.323Z,20.33
2023-05-11T01:13:23.818Z,19.45
2023-05-11T01:15:56.425Z,20.20
2023-05-11T01:18:29.767Z,24.27
2023-05-11T01:21:01.430Z,22.73
2023-05-11T01:23:31.494Z,18.58
2023-05-11T01:26:17.674Z,18.15
2023-05-11T01:28:44.911Z,21.70
2023-05-11T01:31:13.474Z,18.85
2023-05-11T01:33:44.982Z,17.65
2023-05-11T01:36:13.641Z,17.98
2023-05-11T01:38:41.612Z,21.60
2023-05-11T01:41:15.033Z,21.23
2023-05-11T01:43:43.706Z,21.33
2023-05-11T01:46:13.279Z,26.42
2023-05-11T01:48:41.679Z,24.00
2023-05-11T01:51:09.859Z,22.88
2023-05-11T01:53:38.656Z,28.17
2023-05-11T01:56:07.184Z,23.90
2023-05-11T01:58:35.928Z,26.20
2023-05-11T02:01:04.496Z,23.52
2023-05-11T02:03:36.601Z,24.20
2023-05-11T02:06:05.614Z,30.25
2023-05-11T02:08:33.175Z,25.88
2023-05-11T02:11:01.696Z,22.92
2023-05-11T02:13:29.600Z,21.95
2023-05-11T02:15:57.458Z,27.85
2023-05-11T02:18:25.293Z,25.65
2023-05-11T02:20:52.835Z,22.45
2023-05-11T02:23:20.603Z,21.42
2023-05-11T02:25:48.073Z,25.05
2023-05-11T02:28:15.451Z,29.00
2023-05-11T02:30:46.838Z,25.05
2023-05-11T02:33:17.686Z,27.27
2023-05-11T02:35:45.206Z,23.02
2023-05-11T02:38:13.100Z,25.77
2023-05-11T02:40:59.544Z,26.30
2023-05-11T02:43:30.241Z,22.10
2023-05-11T02:46:02.483Z,27.50
2023-05-11T02:48:31.472Z,23.13
2023-05-11T02:50:59.232Z,22.38
2023-05-11T02:53:28.346Z,19.38
2023-05-11T02:55:56.099Z,29.85
2023-05-11T02:58:23.926Z,27.58
2023-05-11T03:00:51.629Z,25.48
2023-05-11T03:03:19.038Z,21.05
2023-05-11T03:05:46.422Z,22.33
2023-05-11T03:08:13.872Z,18.63
2023-05-11T03:10:41.433Z,22.83
2023-05-11T03:13:09.399Z,15.55
2023-05-11T03:15:37.435Z,16.42
2023-05-11T03:18:05.711Z,16.65
2023-05-11T03:20:34.285Z,17.88
2023-05-11T03:23:01.644Z,21.83
2023-05-11T03:25:29.273Z,17.60
2023-05-11T03:27:58.457Z,18.75
2023-05-11T03:30:27.198Z,24.10
2023-05-11T03:32:54.590Z,16.65
2023-05-11T03:35:25.824Z,28.58
2023-05-11T03:40:20.882Z,18.88
2023-05-11T03:42:48.603Z,22.08
2023-05-11T03:45:17.704Z,21.35
2023-05-11T03:47:46.112Z,17.08
2023-05-11T03:50:13.876Z,16.95
2023-05-11T03:52:41.451Z,17.52
2023-05-11T03:55:09.248Z,16.48
2023-05-11T03:57:36.826Z,15.48
2023-05-11T04:00:04.562Z,20.25
2023-05-11T04:02:31.875Z,19.70
2023-05-11T04:04:59.144Z,14.18
2023-05-11T04:07:26.570Z,14.02
2023-05-11T04:09:53.826Z,15.82
2023-05-11T04:12:21.461Z,12.45
2023-05-11T04:14:48.752Z,15.20
2023-05-11T04:17:16.025Z,14.43
2023-05-11T04:19:43.296Z,11.98
2023-05-11T04:22:12.279Z,15.32
2023-05-11T04:24:39.827Z,16.95
2023-05-11T04:27:07.122Z,16.25
2023-05-11T04:29:34.666Z,25.77
2023-05-11T04:32:02.009Z,15.77
2023-05-11T04:34:29.263Z,18.83
2023-05-11T04:36:56.541Z,21.23
2023-05-11T04:39:23.792Z,22.08
2023-05-11T04:41:51.067Z,19.70
2023-05-11T04:44:18.341Z,23.00
2023-05-11T04:46:45.740Z,19.95
2023-05-11T04:49:13.028Z,12.98
2023-05-11T04:51:40.333Z,23.17
2023-05-11T04:54:07.679Z,18.48
2023-05-11T04:56:36.613Z,17.42
2023-05-11T04:59:05.340Z,14.20
2023-05-11T05:01:33.048Z,14.40
2023-05-11T05:04:00.417Z,23.63
2023-05-11T05:06:27.844Z,20.20
2023-05-11T05:08:55.103Z,16.08
2023-05-11T05:11:22.370Z,20.98
2023-05-11T05:13:49.666Z,16.77
2023-05-11T05:16:17.645Z,27.63
2023-05-11T05:18:45.031Z,23.48
2023-05-11T05:21:12.386Z,22.90
2023-05-11T05:23:39.636Z,15.10
2023-05-11T05:26:06.870Z,26.58
2023-05-11T05:28:35.966Z,20.23
2023-05-11T05:31:03.288Z,18.48
2023-05-11T05:33:30.770Z,19.33
2023-05-11T05:35:58.062Z,17.13
2023-05-11T05:38:25.401Z,20.50
2023-05-11T05:40:52.676Z,26.30
2023-05-11T05:43:19.964Z,17.58
2023-05-11T05:45:47.271Z,18.92
2023-05-11T05:48:14.559Z,19.73
2023-05-11T05:50:41.822Z,21.27
2023-05-11T05:53:09.165Z,17.27
2023-05-11T05:55:36.476Z,14.05
2023-05-11T05:58:03.738Z,20.08
2023-05-11T06:00:31.263Z,27.00
2023-05-11T06:02:59.061Z,24.23
2023-05-11T06:05:26.699Z,19.88
2023-05-11T06:08:05.871Z,18.10
2023-05-11T06:10:37.217Z,18.55
2023-05-11T06:13:04.765Z,16.25
2023-05-11T06:15:32.154Z,17.80
2023-05-11T06:17:59.471Z,13.93
2023-05-11T06:20:26.825Z,15.70
2023-05-11T06:22:54.099Z,19.10
2023-05-11T06:25:21.753Z,18.63
2023-05-11T06:27:49.010Z,17.23
2023-05-11T06:30:16.441Z,16.58
2023-05-11T06:32:43.976Z,21.20
2023-05-11T06:35:11.310Z,19.70
2023-05-11T06:37:38.592Z,19.55
2023-05-11T06:40:06.793Z,17.33
2023-05-11T06:42:34.191Z,22.10
2023-05-11T06:45:01.582Z,19.75
2023-05-11T06:47:29.629Z,14.68
2023-05-11T06:49:56.927Z,22.88
2023-05-11T06:52:24.177Z,8.45
2023-05-11T06:54:51.640Z,11.98
2023-05-11T06:57:19.045Z,18.75
2023-05-11T06:59:46.382Z,18.60
2023-05-11T07:02:13.672Z,13.98
2023-05-11T07:04:41.062Z,16.73
2023-05-11T07:07:11.325Z,14.20
2023-05-11T07:09:40.072Z,14.93
2023-05-11T07:12:08.683Z,9.13
2023-05-11T07:14:35.954Z,11.98
2023-05-11T07:17:03.925Z,10.80
2023-05-11T07:19:31.306Z,7.25
2023-05-11T07:21:58.578Z,14.85
2023-05-11T07:24:26.061Z,12.85
2023-05-11T07:26:53.370Z,13.30
2023-05-11T07:29:21.127Z,15.00
2023-05-11T07:31:48.587Z,15.32
2023-05-11T07:34:16.369Z,7.55
2023-05-11T07:36:43.782Z,6.22
2023-05-11T07:39:11.157Z,11.30
2023-05-11T07:41:38.467Z,11.88
2023-05-11T07:44:05.853Z,9.50
2023-05-11T07:46:33.151Z,8.63
2023-05-11T07:49:14.389Z,9.00
2023-05-11T07:51:46.037Z,18.35
2023-05-11T07:54:13.324Z,8.93
2023-05-11T07:56:40.573Z,13.38
2023-05-11T07:59:07.814Z,15.32
2023-05-11T08:01:35.122Z,7.97
2023-05-11T08:04:02.555Z,16.65
2023-05-11T08:06:30.510Z,13.98
2023-05-11T08:08:57.801Z,18.73
2023-05-11T08:11:25.071Z,13.65
2023-05-11T08:13:52.971Z,9.95
2023-05-11T08:16:20.254Z,16.58
2023-05-11T08:18:47.788Z,15.38
2023-05-11T08:21:15.481Z,6.82
2023-05-11T08:23:44.629Z,15.50
2023-05-11T08:26:12.474Z,10.63
2023-05-11T08:28:39.787Z,10.73
2023-05-11T08:31:07.076Z,5.78
2023-05-11T08:33:37.539Z,12.40
2023-05-11T08:36:06.437Z,5.55
2023-05-11T08:38:33.702Z,9.57
2023-05-11T08:41:02.237Z,7.43
2023-05-11T08:43:29.988Z,4.38
2023-05-11T08:45:58.561Z,9.32
2023-05-11T08:48:25.927Z,8.20
2023-05-11T08:50:53.225Z,10.45
2023-05-11T08:53:20.549Z,5.10
2023-05-11T08:55:48.881Z,2.95
2023-05-11T08:58:19.714Z,8.85
2023-05-11T09:00:47.296Z,4.60
2023-05-11T09:03:15.104Z,6.03
2023-05-11T09:05:43.747Z,3.50
2023-05-11T09:08:12.194Z,5.45
2023-05-11T09:10:39.540Z,5.85
2023-05-11T09:13:07.052Z,9.68
2023-05-11T09:18:04.936Z,8.25
2023-05-11T09:20:33.421Z,6.38
2023-05-11T09:23:01.123Z,10.23
2023-05-11T09:25:31.848Z,5.55
2023-05-11T09:30:26.599Z,4.30
2023-05-11T09:32:57.698Z,6.35
2023-05-11T09:35:35.234Z,5.13
2023-05-11T09:38:05.328Z,3.88
2023-05-11T09:40:34.707Z,5.05
2023-05-11T09:43:03.472Z,8.27
2023-05-11T09:45:44.073Z,7.10
2023-05-11T09:48:24.905Z,6.70
2023-05-11T09:50:53.992Z,9.68
2023-05-11T09:53:21.511Z,5.75
2023-05-11T09:55:52.323Z,4.22
2023-05-11T09:58:19.646Z,6.05
2023-05-11T10:00:53.846Z,5.00
2023-05-11T10:03:21.510Z,6.05
2023-05-11T10:05:59.528Z,8.52
2023-05-11T10:08:30.872Z,6.57
2023-05-11T10:10:58.702Z,5.43
2023-05-11T10:13:27.198Z,8.00
2023-05-11T10:15:55.818Z,4.25
2023-05-11T10:18:23.356Z,8.38
2023-05-11T10:20:50.987Z,6.80
2023-05-11T10:23:19.835Z,3.53
2023-05-11T10:25:48.087Z,4.22
2023-05-11T10:28:15.675Z,6.95
2023-05-11T10:30:44.336Z,8.35
2023-05-11T10:33:12.474Z,8.35
2023-05-11T10:35:40.133Z,11.57
2023-05-11T10:38:07.683Z,6.65
2023-05-11T10:40:39.427Z,7.47
2023-05-11T10:43:16.666Z,7.68
2023-05-11T10:46:00.135Z,8.10
2023-05-11T10:48:45.962Z,9.48
2023-05-11T10:51:53.120Z,6.53
2023-05-11T10:54:23.276Z,5.30
2023-05-11T10:57:00.412Z,5.83
2023-05-11T10:59:46.370Z,7.78
2023-05-11T11:02:13.922Z,7.53
2023-05-11T11:04:44.344Z,5.22
2023-05-11T11:07:13.382Z,11.85
2023-05-11T11:09:53.736Z,7.63
2023-05-11T11:12:22.079Z,5.00
2023-05-11T11:14:58.861Z,5.47
2023-05-11T11:17:28.055Z,3.35
2023-05-11T11:19:55.791Z,8.07
2023-05-11T11:22:35.649Z,5.75
2023-05-11T11:25:05.807Z,5.65
2023-05-11T11:27:42.486Z,5.67
2023-05-11T11:30:15.968Z,12.27
2023-05-11T11:32:45.527Z,5.47
2023-05-11T11:35:32.137Z,9.57
2023-05-11T11:38:03.389Z,5.93
2023-05-11T11:40:47.197Z,5.32
2023-05-11T11:43:19.736Z,6.28
2023-05-11T11:46:00.008Z,7.65
2023-05-11T11:48:35.705Z,8.97
2023-05-11T11:51:03.401Z,5.43
2023-05-11T11:53:37.325Z,5.07
2023-05-11T11:56:05.601Z,8.15
2023-05-11T11:58:42.092Z,6.32
2023-05-11T12:01:10.196Z,5.55
2023-05-11T12:03:37.862Z,5.95
2023-05-11T12:06:06.398Z,5.55
2023-05-11T12:08:33.646Z,5.70
2023-05-11T12:11:01.497Z,7.07
2023-05-11T12:13:29.236Z,7.97
2023-05-11T12:16:09.683Z,3.42
2023-05-11T12:18:37.228Z,3.25
2023-05-11T12:21:04.817Z,8.20
2023-05-11T12:23:32.562Z,4.25
2023-05-11T12:26:03.739Z,4.35
2023-05-11T12:28:31.077Z,3.53
2023-05-11T12:31:00.605Z,6.25
2023-05-11T12:33:28.389Z,5.05
2023-05-11T12:35:56.503Z,6.35
2023-05-11T12:38:23.850Z,3.33
2023-05-11T12:40:52.352Z,6.97
2023-05-11T12:43:20.352Z,4.18
2023-05-11T12:45:47.747Z,6.00
2023-05-11T12:48:15.371Z,5.57
2023-05-11T12:50:43.325Z,7.13
2023-05-11T12:53:17.582Z,10.65
2023-05-11T12:55:45.025Z,10.18
2023-05-11T12:58:13.772Z,5.13
2023-05-11T13:00:59.951Z,4.97
2023-05-11T13:03:28.388Z,9.00
2023-05-11T13:06:09.164Z,5.22
2023-05-11T13:08:37.373Z,7.78
2023-05-11T13:11:22.660Z,3.25
2023-05-11T13:13:50.471Z,6.28
2023-05-11T13:16:25.404Z,8.18
2023-05-11T13:19:12.493Z,8.00
2023-05-11T13:21:40.006Z,6.45
2023-05-11T13:24:07.408Z,10.07
2023-05-11T13:26:34.715Z,8.02
2023-05-11T13:29:10.804Z,9.05
2023-05-11T13:31:45.171Z,10.38
2023-05-11T13:34:12.648Z,4.75
2023-05-11T13:36:40.174Z,5.35
2023-05-11T13:39:07.624Z,4.43
2023-05-11T13:41:36.658Z,5.53
2023-05-11T13:44:04.054Z,9.10
2023-05-11T13:46:31.449Z,7.30
2023-05-11T13:49:00.464Z,4.82
2023-05-11T13:51:27.865Z,7.55
2023-05-11T13:53:55.135Z,10.93
2023-05-11T13:56:22.525Z,11.63
2023-05-11T13:58:49.780Z,5.13
2023-05-11T14:01:17.297Z,6.32
2023-05-11T14:03:44.663Z,5.30
2023-05-11T14:06:12.659Z,6.32
2023-05-11T14:08:39.883Z,6.90
2023-05-11T14:11:07.219Z,7.85
2023-05-11T14:13:34.571Z,8.05
2023-05-11T14:16:02.503Z,9.18
2023-05-11T14:18:29.914Z,5.13
2023-05-11T14:20:57.256Z,8.80
2023-05-11T14:23:24.498Z,10.63
2023-05-11T14:25:51.758Z,4.82
2023-05-11T14:28:19.009Z,6.07
2023-05-11T14:30:46.321Z,5.80
2023-05-11T14:33:13.815Z,6.55
2023-05-11T14:35:41.125Z,4.82
2023-05-11T14:38:08.509Z,4.25
2023-05-11T14:40:35.789Z,8.82
2023-05-11T14:43:03.061Z,5.45
2023-05-11T14:45:30.310Z,4.55
2023-05-11T14:48:00.399Z,11.02
2023-05-11T14:50:31.162Z,8.63
2023-05-11T14:53:04.394Z,16.75
2023-05-11T14:55:32.175Z,17.40
2023-05-11T15:01:01.259Z,10.02
2023-05-11T15:03:29.794Z,6.65
2023-05-11T15:05:57.289Z,7.80
2023-05-11T15:08:30.142Z,7.22
2023-05-11T15:10:58.192Z,13.93
2023-05-11T15:13:28.661Z,6.95
2023-05-11T15:15:56.476Z,8.88
2023-05-11T15:18:24.154Z,8.23
2023-05-11T15:20:51.443Z,7.43
2023-05-11T15:23:18.991Z,9.82
2023-05-11T15:25:46.328Z,9.57
2023-05-11T15:28:13.738Z,4.68
2023-05-11T15:30:42.183Z,11.43
2023-05-11T15:33:10.075Z,9.70
2023-05-11T15:35:38.028Z,7.13
2023-05-11T15:38:06.396Z,15.38
2023-05-11T15:40:34.009Z,6.30
2023-05-11T15:43:01.452Z,6.63
2023-05-11T15:45:29.646Z,5.97
2023-05-11T15:47:58.282Z,6.38
2023-05-11T15:50:26.333Z,6.65
2023-05-11T15:52:53.857Z,4.93
2023-05-11T15:55:21.188Z,5.72
2023-05-11T15:57:48.543Z,8.10
2023-05-11T16:00:16.741Z,10.30
2023-05-11T16:02:45.990Z,10.70
2023-05-11T16:05:13.452Z,7.63
2023-05-11T16:07:41.108Z,5.10
2023-05-11T16:10:08.894Z,10.90
2023-05-11T16:12:36.257Z,4.43
2023-05-11T16:15:03.617Z,6.43
2023-05-11T16:17:31.420Z,8.02
2023-05-11T16:20:00.510Z,4.68
2023-05-11T16:22:28.168Z,3.72
2023-05-11T16:24:55.449Z,5.93
2023-05-11T16:27:22.843Z,6.90
2023-05-11T16:29:51.243Z,9.77
2023-05-11T16:32:20.357Z,8.25
2023-05-11T16:34:47.708Z,9.93
2023-05-11T16:37:15.002Z,6.20
2023-05-11T16:39:42.555Z,10.82
2023-05-11T16:42:10.602Z,8.32
2023-05-11T16:44:37.911Z,10.90
2023-05-11T16:47:05.896Z,7.03
2023-05-11T16:49:33.549Z,12.15
2023-05-11T16:52:00.919Z,4.28
2023-05-11T16:54:28.371Z,9.15
2023-05-11T16:56:55.653Z,8.65
2023-05-11T16:59:22.918Z,6.13
2023-05-11T17:01:50.245Z,8.65
2023-05-11T17:04:17.681Z,8.38
2023-05-11T17:06:45.116Z,13.20
2023-05-11T17:09:12.863Z,5.00
2023-05-11T17:11:40.144Z,6.82
2023-05-11T17:14:07.417Z,7.32
2023-05-11T17:16:34.805Z,9.48
2023-05-11T17:19:02.149Z,10.80
2023-05-11T17:21:29.469Z,5.00
2023-05-11T17:23:56.944Z,4.72
2023-05-11T17:26:27.457Z,3.95
2023-05-11T17:29:00.306Z,7.32
2023-05-11T17:31:27.764Z,14.30
2023-05-11T17:33:55.400Z,6.15
2023-05-11T17:36:22.832Z,7.63
2023-05-11T17:38:51.409Z,8.40
2023-05-11T17:41:18.688Z,9.23
2023-05-11T17:43:47.687Z,11.85
2023-05-11T17:46:16.263Z,7.15
2023-05-11T17:48:43.623Z,6.47
2023-05-11T17:51:10.975Z,9.95
2023-05-11T17:53:38.432Z,14.20
2023-05-11T17:56:08.100Z,6.50
2023-05-11T17:58:35.616Z,12.35
2023-05-11T18:01:08.713Z,5.07
2023-05-11T18:03:36.265Z,5.40
2023-05-11T18:06:04.832Z,8.10
2023-05-11T18:08:32.949Z,6.25
2023-05-11T18:11:00.271Z,14.10
2023-05-11T18:13:28.774Z,6.65
2023-05-11T18:15:59.825Z,9.45
2023-05-11T18:20:55.035Z,10.18
2023-05-11T18:23:22.771Z,5.32
2023-05-11T18:25:50.056Z,6.75
2023-05-11T18:28:18.394Z,6.85
2023-05-11T18:30:45.776Z,5.82
2023-05-11T18:33:13.141Z,6.00
2023-05-11T18:35:41.762Z,5.47
2023-05-11T18:38:09.234Z,6.95
2023-05-11T18:40:36.728Z,30.00
2023-05-11T18:43:04.258Z,22.65
2023-05-11T18:45:33.176Z,17.30
2023-05-11T18:48:00.494Z,17.08
2023-05-11T18:50:29.787Z,15.13
2023-05-11T18:52:57.894Z,14.77
2023-05-11T18:55:26.838Z,9.68
2023-05-11T18:57:58.082Z,9.10
2023-05-11T19:00:25.614Z,8.95
2023-05-11T19:02:54.685Z,13.88
2023-05-11T19:05:22.480Z,9.77
2023-05-11T19:07:49.822Z,10.18
2023-05-11T19:10:18.184Z,8.77
2023-05-11T19:12:46.311Z,14.60
2023-05-11T19:15:13.550Z,14.45
2023-05-11T19:17:40.892Z,8.30
2023-05-11T19:20:08.658Z,6.72
2023-05-11T19:22:36.302Z,14.23
2023-05-11T19:25:03.637Z,13.20
2023-05-11T19:27:31.029Z,14.70
2023-05-11T19:29:58.674Z,12.93
2023-05-11T19:32:27.427Z,10.10
2023-05-11T19:34:55.159Z,7.70
2023-05-11T19:37:22.577Z,7.60
2023-05-11T19:39:49.936Z,5.78
2023-05-11T19:42:19.639Z,9.95
2023-05-11T19:44:52.342Z,11.95
2023-05-11T19:47:19.784Z,14.95
2023-05-11T19:49:47.688Z,21.92
2023-05-11T19:52:15.080Z,20.17
2023-05-11T19:54:43.129Z,16.67
2023-05-11T19:57:10.455Z,12.35
2023-05-11T19:59:37.781Z,24.30
2023-05-11T20:02:05.211Z,17.73
2023-05-11T20:04:32.501Z,16.45
2023-05-11T20:06:59.427Z,23.67
2023-05-11T20:09:26.398Z,26.45
2023-05-11T20:11:53.589Z,18.33
2023-05-11T20:14:20.468Z,17.92
2023-05-11T20:16:47.419Z,26.63
2023-05-11T20:19:14.428Z,20.00
2023-05-11T20:21:41.751Z,17.98
2023-05-11T20:24:09.014Z,22.00
2023-05-11T20:26:37.132Z,16.70
2023-05-11T20:29:04.497Z,20.88
2023-05-11T20:31:32.909Z,28.05
2023-05-11T20:36:30.744Z,22.42
2023-05-11T20:38:58.607Z,21.17
2023-05-11T20:41:25.573Z,26.55
2023-05-11T20:43:53.021Z,28.05
2023-05-11T20:46:20.697Z,28.33
2023-05-11T20:48:51.460Z,19.25
2023-05-11T20:56:17.654Z,29.75
2023-05-11T20:58:47.627Z,28.77
2023-05-11T21:01:14.786Z,32.60
2023-05-11T21:03:41.951Z,41.50
2023-05-11T21:06:08.983Z,34.42
2023-05-11T21:08:36.434Z,38.28
2023-05-11T21:11:03.528Z,27.45
2023-05-11T21:13:30.831Z,27.15
2023-05-11T21:15:57.733Z,32.15
2023-05-11T21:18:32.031Z,25.33
2023-05-11T21:20:59.611Z,26.40
2023-05-11T21:23:26.865Z,25.63
2023-05-11T21:25:58.291Z,21.00
2023-05-11T21:28:27.142Z,28.70
2023-05-11T21:30:54.792Z,33.42
2023-05-11T21:33:21.961Z,38.25
2023-05-11T21:35:48.879Z,33.00
2023-05-11T21:38:17.214Z,25.83
2023-05-11T21:40:56.567Z,31.08
2023-05-11T21:43:23.456Z,32.58
2023-05-11T21:45:51.157Z,24.52
2023-05-11T21:48:18.237Z,30.02
2023-05-11T21:50:45.215Z,33.42
2023-05-11T21:53:12.171Z,44.28
2023-05-11T21:55:39.075Z,31.98
2023-05-11T21:58:06.110Z,39.35
2023-05-11T22:00:34.882Z,38.17
2023-05-11T22:03:02.073Z,35.50
2023-05-11T22:05:29.089Z,33.58
2023-05-11T22:08:06.681Z,34.75
2023-05-11T22:10:40.624Z,35.33
2023-05-11T22:13:07.513Z,38.75
2023-05-11T22:15:43.239Z,35.90
2023-05-11T22:18:10.174Z,43.00
2023-05-11T22:20:37.088Z,36.58
2023-05-11T22:23:04.619Z,34.58
2023-05-11T22:25:32.257Z,39.92
2023-05-11T22:27:59.249Z,35.30
2023-05-11T22:30:26.225Z,41.33
2023-05-11T22:32:53.276Z,32.05
2023-05-11T22:35:20.327Z,33.33
2023-05-11T22:37:47.334Z,41.70
2023-05-11T22:40:14.344Z,27.90
2023-05-11T22:42:41.763Z,30.25
2023-05-11T22:45:09.264Z,36.90
2023-05-11T22:47:36.164Z,35.63
2023-05-11T22:50:03.745Z,42.67
2023-05-11T22:52:30.730Z,34.35
2023-05-11T22:54:59.400Z,37.70
2023-05-11T22:57:26.995Z,32.58
2023-05-11T22:59:53.948Z,30.67
2023-05-11T23:02:21.192Z,30.58
2023-05-11T23:04:52.350Z,35.25
2023-05-11T23:07:20.001Z,29.80
2023-05-11T23:09:47.155Z,33.35
2023-05-11T23:12:14.072Z,30.95
2023-05-11T23:14:41.973Z,32.75
2023-05-11T23:17:09.213Z,21.52
2023-05-11T23:19:36.295Z,28.35
2023-05-11T23:22:03.422Z,25.92
2023-05-11T23:24:30.632Z,33.60
2023-05-11T23:26:57.619Z,31.10
2023-05-11T23:29:24.749Z,32.25
2023-05-11T23:31:51.772Z,28.48
2023-05-11T23:34:19.254Z,25.80
2023-05-11T23:36:46.752Z,23.30
2023-05-11T23:39:13.869Z,22.45
2023-05-11T23:41:40.818Z,21.25
2023-05-11T23:44:07.836Z,27.65
2023-05-11T23:46:34.816Z,28.35
2023-05-11T23:49:02.041Z,24.58
2023-05-11T23:51:29.004Z,20.92
2023-05-11T23:53:55.900Z,23.75
2023-05-11T23:56:22.843Z,22.98
2023-05-11T23:58:50.583Z,20.83
